Weather at Aeropuerto Internacional Lic. Gustavo Díaz Ordaz

Public forecast

Using degrees Celsius for public forecast. Weather courtesy of forecast.io.

Current aviation weather report (METAR) for Aeropuerto Internacional Lic. Gustavo Díaz Ordaz

2024/05/23 02:40 (retrieved 34 minutes ago)

MMPR 230240Z 21004KT 12SM SKC 26/22 A2986 RMK SLP110 52008 912 HZY

Closest aviation forecast (TAF) to Aeropuerto Internacional Lic. Gustavo Díaz Ordaz

Forecast is more than 6 hours old.

Closest forecast is Amado Nervo National Airport, 49.9 nm (92.4 km) NNE.

2024/05/22 18:55 (retrieved 8 hours ago)

TAF MMEP 221646Z 2218/2318 33010KT P6SM SCT090 SCT250 FM230300 33005KT P6SM SCT250 FM231800 33010KT P6SM SKC